Estación Meteorológica Peña el Pijo (Robertgarden) [ 02/17/19 02:33:28 CET ]

Fecha Hora Presion(HPa) Temp (°C) Humedad % Rocio (°C) Viento ( m/s) Direccion Lluvia 1Hora(mm) Lluvia 24H(mm) LLuvia Total(mm)
2018-Dec-25 01:02:00 1016.300 1.3 67 -4.2         160.58
2018-Dec-25 02:01:44 1016.300 1.2 70 -3.7         160.58
2018-Dec-25 03:01:40 1016.300 -0.1 71 -4.7         160.58
2018-Dec-25 04:03:32 1015.700 -0.5 72 -4.9         160.58
2018-Dec-25 05:01:44 1015.300 -0.7 74 -4.8         160.58
2018-Dec-25 06:01:57 1015.400 -0.1 74 -4.2         160.58
2018-Dec-25 07:01:41 1015.600 -0.4 74 -4.5         160.58
2018-Dec-25 08:01:46 1016.300 -0.5 75 -4.4         160.58
2018-Dec-25 09:02:05 1017.000 -0.2 75 -4.1         160.58
2018-Dec-25 10:01:43 1017.000 1.6 75 -2.4         160.58
2018-Dec-25 11:01:54 1017.200 5.9 71 1.1         160.58
2018-Dec-25 12:02:02 1016.500 12.9 46 1.5         160.58
2018-Dec-25 13:01:48 1015.600 14.9 37 0.2 2.2 E     160.58
2018-Dec-25 14:01:52 1015.100 16.1 34 0.1         160.58
2018-Dec-25 15:01:56 1014.800 15.5 37 0.8 1.1 NNE     160.58
2018-Dec-25 16:01:50 1015.200 15.2 39 1.3         160.58
2018-Dec-25 17:01:43 1015.900 13.3 43 0.9         160.58
2018-Dec-25 18:01:54 1016.600 9.8 50 -0.1         160.58
2018-Dec-25 19:01:51 1017.200 6.4 58 -1.3         160.58
2018-Dec-25 20:01:44 1017.700 4.1 66 -1.7         160.58
2018-Dec-25 21:01:43 1018.000 2.4 70 -2.5         160.58
2018-Dec-25 22:01:43 1018.300 2.0 74 -2.2         160.58
2018-Dec-25 23:02:05 1018.100 0.9 77 -2.7         160.58

Temperatura Máxima:16°    Temperatura Mínima:
Presión Máxima:1018.300 Hpa    Presión Mínima:1014.800 Hpa


Volver